Terminal Aerodrome Forecast
Issued by NWS

Home | Current Version | Previous Version | Text Only | Print | Product List | Glossary On
Versions: 1 2 3 4 5 6 7 8 9 10 11 12 13
365
FTUS44 KBMX 222339
TAFTOI
TAF
KTOI 222339Z 2300/2324 20005KT P6SM SCT050
      TEMPO 2310/2312 5SM BR SCT012
     FM231500 24005KT P6SM SCT050
     FM232200 21007KT P6SM VCTS BKN050CB=

USA.gov is the U.S. government's official web portal to all federal, state and local government web resources and services.